sensor_id;sensor_type;location;lat;lon;timestamp;P1;durP1;ratioP1;P2;durP2;ratioP2
43626;SDS011;29217;52.586;13.442;2024-02-26T00:01:08;33.70;;;12.15;;
43626;SDS011;29217;52.586;13.442;2024-02-26T00:03:34;29.85;;;11.90;;
43626;SDS011;29217;52.586;13.442;2024-02-26T00:06:01;37.28;;;11.48;;
43626;SDS011;29217;52.586;13.442;2024-02-26T00:08:27;32.25;;;11.40;;
43626;SDS011;29217;52.586;13.442;2024-02-26T00:10:53;21.25;;;9.70;;
43626;SDS011;29217;52.586;13.442;2024-02-26T00:13:19;25.48;;;10.43;;
43626;SDS011;29217;52.586;13.442;2024-02-26T00:15:47;30.60;;;10.55;;
43626;SDS011;29217;52.586;13.442;2024-02-26T00:18:13;25.42;;;10.80;;
43626;SDS011;29217;52.586;13.442;2024-02-26T00:20:39;27.38;;;10.10;;
43626;SDS011;29217;52.586;13.442;2024-02-26T00:23:06;24.65;;;10.57;;
43626;SDS011;29217;52.586;13.442;2024-02-26T00:25:32;22.80;;;10.05;;
43626;SDS011;29217;52.586;13.442;2024-02-26T00:27:58;20.73;;;9.98;;
43626;SDS011;29217;52.586;13.442;2024-02-26T00:30:24;28.65;;;10.70;;
43626;SDS011;29217;52.586;13.442;2024-02-26T00:32:50;17.35;;;8.82;;
43626;SDS011;29217;52.586;13.442;2024-02-26T00:35:16;22.85;;;10.30;;
43626;SDS011;29217;52.586;13.442;2024-02-26T00:37:45;22.63;;;9.45;;
43626;SDS011;29217;52.586;13.442;2024-02-26T00:40:11;23.00;;;11.10;;
43626;SDS011;29217;52.586;13.442;2024-02-26T00:42:37;27.52;;;11.68;;
43626;SDS011;29217;52.586;13.442;2024-02-26T00:45:03;25.83;;;9.55;;
43626;SDS011;29217;52.586;13.442;2024-02-26T00:47:29;23.95;;;10.00;;
43626;SDS011;29217;52.586;13.442;2024-02-26T00:49:55;24.60;;;10.27;;
43626;SDS011;29217;52.586;13.442;2024-02-26T00:52:21;19.45;;;9.73;;
43626;SDS011;29217;52.586;13.442;2024-02-26T00:54:47;29.92;;;9.38;;
43626;SDS011;29217;52.586;13.442;2024-02-26T00:57:13;28.10;;;10.50;;
43626;SDS011;29217;52.586;13.442;2024-02-26T00:59:39;26.77;;;10.05;;
43626;SDS011;29217;52.586;13.442;2024-02-26T01:02:05;21.50;;;9.10;;
43626;SDS011;29217;52.586;13.442;2024-02-26T01:04:31;23.85;;;10.30;;
43626;SDS011;29217;52.586;13.442;2024-02-26T01:06:59;26.50;;;10.98;;
43626;SDS011;29217;52.586;13.442;2024-02-26T01:09:25;23.23;;;10.32;;
43626;SDS011;29217;52.586;13.442;2024-02-26T01:11:51;22.75;;;10.18;;
43626;SDS011;29217;52.586;13.442;2024-02-26T01:14:17;25.45;;;11.18;;
43626;SDS011;29217;52.586;13.442;2024-02-26T01:16:43;31.65;;;13.02;;
43626;SDS011;29217;52.586;13.442;2024-02-26T01:19:09;39.05;;;11.80;;
43626;SDS011;29217;52.586;13.442;2024-02-26T01:21:35;25.35;;;10.02;;
43626;SDS011;29217;52.586;13.442;2024-02-26T01:24:01;25.77;;;9.90;;
43626;SDS011;29217;52.586;13.442;2024-02-26T01:26:27;27.25;;;11.70;;
43626;SDS011;29217;52.586;13.442;2024-02-26T01:28:53;23.17;;;10.50;;
43626;SDS011;29217;52.586;13.442;2024-02-26T01:31:20;27.15;;;11.25;;
43626;SDS011;29217;52.586;13.442;2024-02-26T01:33:46;27.15;;;10.63;;
43626;SDS011;29217;52.586;13.442;2024-02-26T01:36:12;27.00;;;10.13;;
43626;SDS011;29217;52.586;13.442;2024-02-26T01:38:38;20.15;;;10.05;;
43626;SDS011;29217;52.586;13.442;2024-02-26T01:41:04;25.23;;;8.93;;
43626;SDS011;29217;52.586;13.442;2024-02-26T01:43:30;20.58;;;9.27;;
43626;SDS011;29217;52.586;13.442;2024-02-26T01:45:56;15.77;;;8.65;;
43626;SDS011;29217;52.586;13.442;2024-02-26T01:48:22;19.67;;;9.70;;
43626;SDS011;29217;52.586;13.442;2024-02-26T01:50:48;21.65;;;9.02;;
43626;SDS011;29217;52.586;13.442;2024-02-26T01:53:14;28.45;;;10.20;;
43626;SDS011;29217;52.586;13.442;2024-02-26T01:55:41;24.45;;;8.73;;
43626;SDS011;29217;52.586;13.442;2024-02-26T01:58:07;18.75;;;8.80;;
43626;SDS011;29217;52.586;13.442;2024-02-26T02:00:34;18.35;;;9.27;;
43626;SDS011;29217;52.586;13.442;2024-02-26T02:03:01;12.90;;;7.35;;
43626;SDS011;29217;52.586;13.442;2024-02-26T02:05:28;17.98;;;8.68;;
43626;SDS011;29217;52.586;13.442;2024-02-26T02:07:54;23.08;;;8.45;;
43626;SDS011;29217;52.586;13.442;2024-02-26T02:10:20;14.35;;;7.63;;
43626;SDS011;29217;52.586;13.442;2024-02-26T02:12:50;23.00;;;7.72;;
43626;SDS011;29217;52.586;13.442;2024-02-26T02:15:16;27.27;;;9.00;;
43626;SDS011;29217;52.586;13.442;2024-02-26T02:17:42;21.48;;;9.70;;
43626;SDS011;29217;52.586;13.442;2024-02-26T02:20:09;20.85;;;8.80;;
43626;SDS011;29217;52.586;13.442;2024-02-26T02:22:35;14.75;;;7.72;;
43626;SDS011;29217;52.586;13.442;2024-02-26T02:25:01;16.00;;;8.43;;
43626;SDS011;29217;52.586;13.442;2024-02-26T02:27:28;18.10;;;8.07;;
43626;SDS011;29217;52.586;13.442;2024-02-26T02:29:55;20.40;;;9.20;;
43626;SDS011;29217;52.586;13.442;2024-02-26T02:32:21;27.55;;;7.78;;
43626;SDS011;29217;52.586;13.442;2024-02-26T02:34:47;15.80;;;7.97;;
43626;SDS011;29217;52.586;13.442;2024-02-26T02:37:13;18.67;;;7.07;;
43626;SDS011;29217;52.586;13.442;2024-02-26T02:39:38;22.90;;;8.15;;
43626;SDS011;29217;52.586;13.442;2024-02-26T02:42:04;15.52;;;7.70;;
43626;SDS011;29217;52.586;13.442;2024-02-26T02:44:30;18.30;;;8.70;;
43626;SDS011;29217;52.586;13.442;2024-02-26T02:46:55;26.27;;;8.73;;
43626;SDS011;29217;52.586;13.442;2024-02-26T02:49:21;23.83;;;9.05;;
43626;SDS011;29217;52.586;13.442;2024-02-26T02:51:48;22.00;;;9.02;;
43626;SDS011;29217;52.586;13.442;2024-02-26T02:54:14;27.60;;;9.32;;
43626;SDS011;29217;52.586;13.442;2024-02-26T02:56:39;33.53;;;10.43;;
43626;SDS011;29217;52.586;13.442;2024-02-26T02:59:05;29.98;;;9.93;;
43626;SDS011;29217;52.586;13.442;2024-02-26T03:01:30;32.55;;;9.30;;
43626;SDS011;29217;52.586;13.442;2024-02-26T03:03:56;31.42;;;10.88;;
43626;SDS011;29217;52.586;13.442;2024-02-26T03:06:22;34.33;;;11.00;;
43626;SDS011;29217;52.586;13.442;2024-02-26T03:08:48;29.60;;;10.57;;
43626;SDS011;29217;52.586;13.442;2024-02-26T03:11:14;29.27;;;10.15;;
43626;SDS011;29217;52.586;13.442;2024-02-26T03:13:40;22.98;;;8.88;;
43626;SDS011;29217;52.586;13.442;2024-02-26T03:16:06;32.35;;;9.90;;
43626;SDS011;29217;52.586;13.442;2024-02-26T03:18:32;27.17;;;9.38;;
43626;SDS011;29217;52.586;13.442;2024-02-26T03:20:57;24.33;;;8.93;;
43626;SDS011;29217;52.586;13.442;2024-02-26T03:23:23;21.92;;;8.30;;
43626;SDS011;29217;52.586;13.442;2024-02-26T03:25:49;26.60;;;9.75;;
43626;SDS011;29217;52.586;13.442;2024-02-26T03:28:14;22.45;;;8.90;;
43626;SDS011;29217;52.586;13.442;2024-02-26T03:30:40;26.85;;;9.85;;
43626;SDS011;29217;52.586;13.442;2024-02-26T03:33:06;19.08;;;8.90;;
43626;SDS011;29217;52.586;13.442;2024-02-26T03:35:31;19.45;;;8.40;;
43626;SDS011;29217;52.586;13.442;2024-02-26T03:37:57;22.25;;;7.45;;
43626;SDS011;29217;52.586;13.442;2024-02-26T03:40:22;33.13;;;9.32;;
43626;SDS011;29217;52.586;13.442;2024-02-26T03:42:49;34.80;;;8.35;;
43626;SDS011;29217;52.586;13.442;2024-02-26T03:45:15;40.65;;;9.32;;
43626;SDS011;29217;52.586;13.442;2024-02-26T03:47:40;25.13;;;7.97;;
43626;SDS011;29217;52.586;13.442;2024-02-26T03:50:06;20.15;;;7.97;;
43626;SDS011;29217;52.586;13.442;2024-02-26T03:52:32;15.90;;;7.05;;
43626;SDS011;29217;52.586;13.442;2024-02-26T03:54:59;20.30;;;6.97;;
43626;SDS011;29217;52.586;13.442;2024-02-26T03:57:24;24.27;;;7.95;;
43626;SDS011;29217;52.586;13.442;2024-02-26T03:59:50;17.77;;;7.00;;
43626;SDS011;29217;52.586;13.442;2024-02-26T04:02:16;20.00;;;6.78;;
43626;SDS011;29217;52.586;13.442;2024-02-26T04:04:41;21.67;;;6.70;;
43626;SDS011;29217;52.586;13.442;2024-02-26T04:07:07;20.70;;;5.88;;
43626;SDS011;29217;52.586;13.442;2024-02-26T04:09:33;14.52;;;5.72;;
43626;SDS011;29217;52.586;13.442;2024-02-26T04:11:59;12.52;;;5.82;;
43626;SDS011;29217;52.586;13.442;2024-02-26T04:14:24;14.38;;;5.18;;
43626;SDS011;29217;52.586;13.442;2024-02-26T04:16:50;9.98;;;4.55;;
43626;SDS011;29217;52.586;13.442;2024-02-26T04:19:17;13.05;;;5.25;;
43626;SDS011;29217;52.586;13.442;2024-02-26T04:21:43;6.70;;;4.03;;
43626;SDS011;29217;52.586;13.442;2024-02-26T04:24:08;8.00;;;4.72;;
43626;SDS011;29217;52.586;13.442;2024-02-26T04:26:34;11.05;;;4.57;;
43626;SDS011;29217;52.586;13.442;2024-02-26T04:29:00;6.80;;;4.30;;
43626;SDS011;29217;52.586;13.442;2024-02-26T04:31:25;9.57;;;4.80;;
43626;SDS011;29217;52.586;13.442;2024-02-26T04:33:51;6.32;;;4.40;;
43626;SDS011;29217;52.586;13.442;2024-02-26T04:36:17;10.82;;;4.50;;
43626;SDS011;29217;52.586;13.442;2024-02-26T04:38:43;14.88;;;5.57;;
43626;SDS011;29217;52.586;13.442;2024-02-26T04:41:09;10.02;;;5.30;;
43626;SDS011;29217;52.586;13.442;2024-02-26T04:43:34;17.60;;;7.50;;
43626;SDS011;29217;52.586;13.442;2024-02-26T04:46:06;19.08;;;5.35;;
43626;SDS011;29217;52.586;13.442;2024-02-26T04:48:33;13.40;;;5.15;;
43626;SDS011;29217;52.586;13.442;2024-02-26T04:50:59;15.40;;;6.72;;
43626;SDS011;29217;52.586;13.442;2024-02-26T04:53:25;13.98;;;5.53;;
43626;SDS011;29217;52.586;13.442;2024-02-26T04:55:51;10.93;;;4.95;;
43626;SDS011;29217;52.586;13.442;2024-02-26T04:58:17;11.73;;;4.95;;
43626;SDS011;29217;52.586;13.442;2024-02-26T05:00:42;12.73;;;5.25;;
43626;SDS011;29217;52.586;13.442;2024-02-26T05:03:08;8.85;;;4.50;;
43626;SDS011;29217;52.586;13.442;2024-02-26T05:05:38;8.10;;;3.85;;
43626;SDS011;29217;52.586;13.442;2024-02-26T05:08:04;10.90;;;4.63;;
43626;SDS011;29217;52.586;13.442;2024-02-26T05:10:29;7.72;;;4.57;;
43626;SDS011;29217;52.586;13.442;2024-02-26T05:12:55;11.73;;;4.80;;
43626;SDS011;29217;52.586;13.442;2024-02-26T05:15:20;8.68;;;5.03;;
43626;SDS011;29217;52.586;13.442;2024-02-26T05:17:46;16.45;;;7.35;;
43626;SDS011;29217;52.586;13.442;2024-02-26T05:20:12;17.48;;;7.30;;
43626;SDS011;29217;52.586;13.442;2024-02-26T05:22:37;19.70;;;7.68;;
43626;SDS011;29217;52.586;13.442;2024-02-26T05:25:03;25.55;;;8.38;;
43626;SDS011;29217;52.586;13.442;2024-02-26T05:27:29;24.92;;;8.45;;
43626;SDS011;29217;52.586;13.442;2024-02-26T05:29:54;8.90;;;5.85;;
43626;SDS011;29217;52.586;13.442;2024-02-26T05:32:20;13.38;;;6.40;;
43626;SDS011;29217;52.586;13.442;2024-02-26T05:34:45;12.88;;;6.55;;
43626;SDS011;29217;52.586;13.442;2024-02-26T05:37:11;15.73;;;6.53;;
43626;SDS011;29217;52.586;13.442;2024-02-26T05:39:37;14.77;;;6.50;;
43626;SDS011;29217;52.586;13.442;2024-02-26T05:42:02;14.07;;;6.57;;
43626;SDS011;29217;52.586;13.442;2024-02-26T05:44:28;18.10;;;6.50;;
43626;SDS011;29217;52.586;13.442;2024-02-26T05:46:54;14.15;;;6.40;;
43626;SDS011;29217;52.586;13.442;2024-02-26T05:49:19;15.52;;;5.78;;
43626;SDS011;29217;52.586;13.442;2024-02-26T05:51:46;11.48;;;5.75;;
43626;SDS011;29217;52.586;13.442;2024-02-26T05:54:12;8.88;;;5.35;;
43626;SDS011;29217;52.586;13.442;2024-02-26T05:56:37;13.20;;;6.50;;
43626;SDS011;29217;52.586;13.442;2024-02-26T05:59:03;14.95;;;6.75;;
43626;SDS011;29217;52.586;13.442;2024-02-26T06:01:29;14.05;;;6.07;;
43626;SDS011;29217;52.586;13.442;2024-02-26T06:03:55;13.55;;;7.13;;
43626;SDS011;29217;52.586;13.442;2024-02-26T06:06:20;11.93;;;6.38;;
43626;SDS011;29217;52.586;13.442;2024-02-26T06:08:48;15.00;;;5.90;;
43626;SDS011;29217;52.586;13.442;2024-02-26T06:11:14;12.05;;;6.63;;
43626;SDS011;29217;52.586;13.442;2024-02-26T06:13:39;14.68;;;6.85;;
43626;SDS011;29217;52.586;13.442;2024-02-26T06:16:05;13.25;;;6.72;;
43626;SDS011;29217;52.586;13.442;2024-02-26T06:18:32;17.95;;;6.75;;
43626;SDS011;29217;52.586;13.442;2024-02-26T06:20:58;15.95;;;6.55;;
43626;SDS011;29217;52.586;13.442;2024-02-26T06:23:24;10.43;;;6.22;;
43626;SDS011;29217;52.586;13.442;2024-02-26T06:25:50;15.77;;;6.15;;
43626;SDS011;29217;52.586;13.442;2024-02-26T06:28:16;16.88;;;7.38;;
43626;SDS011;29217;52.586;13.442;2024-02-26T06:30:42;23.02;;;7.50;;
43626;SDS011;29217;52.586;13.442;2024-02-26T06:33:07;11.90;;;6.35;;
43626;SDS011;29217;52.586;13.442;2024-02-26T06:35:33;15.10;;;6.25;;
43626;SDS011;29217;52.586;13.442;2024-02-26T06:37:59;13.52;;;5.88;;
43626;SDS011;29217;52.586;13.442;2024-02-26T06:40:24;13.10;;;6.68;;
43626;SDS011;29217;52.586;13.442;2024-02-26T06:42:50;16.35;;;6.10;;
43626;SDS011;29217;52.586;13.442;2024-02-26T06:45:16;15.43;;;7.13;;
43626;SDS011;29217;52.586;13.442;2024-02-26T06:47:43;15.27;;;7.15;;
43626;SDS011;29217;52.586;13.442;2024-02-26T06:50:09;23.45;;;7.60;;
43626;SDS011;29217;52.586;13.442;2024-02-26T06:52:36;21.45;;;6.95;;
43626;SDS011;29217;52.586;13.442;2024-02-26T06:55:02;13.55;;;7.75;;
43626;SDS011;29217;52.586;13.442;2024-02-26T06:57:28;14.15;;;6.93;;
43626;SDS011;29217;52.586;13.442;2024-02-26T06:59:53;17.70;;;7.80;;
43626;SDS011;29217;52.586;13.442;2024-02-26T07:02:19;17.77;;;7.82;;
43626;SDS011;29217;52.586;13.442;2024-02-26T07:04:44;20.10;;;7.95;;
43626;SDS011;29217;52.586;13.442;2024-02-26T07:07:10;22.10;;;8.23;;
43626;SDS011;29217;52.586;13.442;2024-02-26T07:09:35;17.27;;;8.27;;
43626;SDS011;29217;52.586;13.442;2024-02-26T07:12:01;19.13;;;7.60;;
43626;SDS011;29217;52.586;13.442;2024-02-26T07:14:27;16.45;;;7.57;;
43626;SDS011;29217;52.586;13.442;2024-02-26T07:16:53;18.80;;;8.55;;
43626;SDS011;29217;52.586;13.442;2024-02-26T07:19:18;19.77;;;7.85;;
43626;SDS011;29217;52.586;13.442;2024-02-26T07:21:44;20.05;;;8.27;;
43626;SDS011;29217;52.586;13.442;2024-02-26T07:24:10;23.88;;;8.60;;
43626;SDS011;29217;52.586;13.442;2024-02-26T07:26:35;16.73;;;7.78;;
43626;SDS011;29217;52.586;13.442;2024-02-26T07:29:01;12.23;;;7.70;;
43626;SDS011;29217;52.586;13.442;2024-02-26T07:31:26;15.73;;;7.45;;
43626;SDS011;29217;52.586;13.442;2024-02-26T07:33:52;10.77;;;6.53;;
43626;SDS011;29217;52.586;13.442;2024-02-26T07:36:18;11.82;;;6.95;;
43626;SDS011;29217;52.586;13.442;2024-02-26T07:38:43;11.70;;;7.22;;
43626;SDS011;29217;52.586;13.442;2024-02-26T07:41:09;9.90;;;6.18;;
43626;SDS011;29217;52.586;13.442;2024-02-26T07:43:36;13.18;;;6.65;;
43626;SDS011;29217;52.586;13.442;2024-02-26T07:46:01;16.92;;;8.55;;
43626;SDS011;29217;52.586;13.442;2024-02-26T07:48:27;15.02;;;7.72;;
43626;SDS011;29217;52.586;13.442;2024-02-26T07:50:53;15.95;;;7.07;;
43626;SDS011;29217;52.586;13.442;2024-02-26T07:53:18;14.85;;;7.20;;
43626;SDS011;29217;52.586;13.442;2024-02-26T07:55:44;14.75;;;7.72;;
43626;SDS011;29217;52.586;13.442;2024-02-26T07:58:10;13.10;;;6.97;;
43626;SDS011;29217;52.586;13.442;2024-02-26T08:00:35;16.08;;;7.97;;
43626;SDS011;29217;52.586;13.442;2024-02-26T08:03:01;14.90;;;7.15;;
43626;SDS011;29217;52.586;13.442;2024-02-26T08:05:27;18.17;;;8.25;;
43626;SDS011;29217;52.586;13.442;2024-02-26T08:07:52;15.55;;;7.88;;
43626;SDS011;29217;52.586;13.442;2024-02-26T08:10:19;14.02;;;7.28;;
43626;SDS011;29217;52.586;13.442;2024-02-26T08:12:45;14.18;;;8.27;;
43626;SDS011;29217;52.586;13.442;2024-02-26T08:15:11;16.60;;;8.38;;
43626;SDS011;29217;52.586;13.442;2024-02-26T08:17:37;17.42;;;8.60;;
43626;SDS011;29217;52.586;13.442;2024-02-26T08:20:03;17.08;;;8.05;;
43626;SDS011;29217;52.586;13.442;2024-02-26T08:22:29;16.13;;;8.88;;
43626;SDS011;29217;52.586;13.442;2024-02-26T08:24:55;19.13;;;8.75;;
43626;SDS011;29217;52.586;13.442;2024-02-26T08:27:20;16.02;;;8.23;;
43626;SDS011;29217;52.586;13.442;2024-02-26T08:29:46;18.50;;;9.10;;
43626;SDS011;29217;52.586;13.442;2024-02-26T08:32:11;17.25;;;8.80;;
43626;SDS011;29217;52.586;13.442;2024-02-26T08:34:37;20.05;;;9.65;;
43626;SDS011;29217;52.586;13.442;2024-02-26T08:37:03;20.35;;;8.82;;
43626;SDS011;29217;52.586;13.442;2024-02-26T08:39:28;22.50;;;9.10;;
43626;SDS011;29217;52.586;13.442;2024-02-26T08:41:54;17.70;;;9.18;;
43626;SDS011;29217;52.586;13.442;2024-02-26T08:44:19;19.17;;;9.02;;
43626;SDS011;29217;52.586;13.442;2024-02-26T08:46:45;20.98;;;9.57;;
43626;SDS011;29217;52.586;13.442;2024-02-26T08:49:11;26.15;;;9.95;;
43626;SDS011;29217;52.586;13.442;2024-02-26T08:51:41;22.85;;;10.75;;
43626;SDS011;29217;52.586;13.442;2024-02-26T08:54:08;20.88;;;10.68;;
43626;SDS011;29217;52.586;13.442;2024-02-26T08:56:33;22.95;;;10.07;;
43626;SDS011;29217;52.586;13.442;2024-02-26T08:58:59;25.80;;;10.63;;
43626;SDS011;29217;52.586;13.442;2024-02-26T09:01:28;22.85;;;10.35;;
43626;SDS011;29217;52.586;13.442;2024-02-26T09:03:57;28.92;;;10.63;;
43626;SDS011;29217;52.586;13.442;2024-02-26T09:06:23;20.77;;;10.73;;
43626;SDS011;29217;52.586;13.442;2024-02-26T09:08:49;24.35;;;10.20;;
43626;SDS011;29217;52.586;13.442;2024-02-26T09:11:14;18.05;;;9.18;;
43626;SDS011;29217;52.586;13.442;2024-02-26T09:13:40;20.67;;;9.65;;
43626;SDS011;29217;52.586;13.442;2024-02-26T09:16:06;22.42;;;9.75;;
43626;SDS011;29217;52.586;13.442;2024-02-26T09:18:31;20.92;;;9.77;;
43626;SDS011;29217;52.586;13.442;2024-02-26T09:20:57;20.05;;;9.45;;
43626;SDS011;29217;52.586;13.442;2024-02-26T09:23:22;15.50;;;8.38;;
43626;SDS011;29217;52.586;13.442;2024-02-26T09:25:48;18.95;;;9.40;;
43626;SDS011;29217;52.586;13.442;2024-02-26T09:28:13;16.13;;;8.23;;
43626;SDS011;29217;52.586;13.442;2024-02-26T09:30:42;18.35;;;9.65;;
43626;SDS011;29217;52.586;13.442;2024-02-26T09:33:10;15.82;;;7.80;;
43626;SDS011;29217;52.586;13.442;2024-02-26T09:35:36;16.42;;;9.07;;
43626;SDS011;29217;52.586;13.442;2024-02-26T09:38:02;19.70;;;9.27;;
43626;SDS011;29217;52.586;13.442;2024-02-26T09:40:28;18.15;;;9.25;;
43626;SDS011;29217;52.586;13.442;2024-02-26T09:42:56;17.63;;;9.05;;
43626;SDS011;29217;52.586;13.442;2024-02-26T09:45:26;16.48;;;9.30;;
43626;SDS011;29217;52.586;13.442;2024-02-26T09:47:54;17.05;;;8.77;;
43626;SDS011;29217;52.586;13.442;2024-02-26T09:50:21;18.08;;;9.13;;
43626;SDS011;29217;52.586;13.442;2024-02-26T09:52:49;18.92;;;8.20;;
43626;SDS011;29217;52.586;13.442;2024-02-26T09:55:17;16.48;;;8.50;;
43626;SDS011;29217;52.586;13.442;2024-02-26T09:57:45;14.23;;;7.80;;
43626;SDS011;29217;52.586;13.442;2024-02-26T10:00:16;20.48;;;8.95;;
43626;SDS011;29217;52.586;13.442;2024-02-26T10:02:45;16.20;;;8.85;;
43626;SDS011;29217;52.586;13.442;2024-02-26T10:05:12;17.95;;;8.48;;
43626;SDS011;29217;52.586;13.442;2024-02-26T10:07:43;17.83;;;8.38;;
43626;SDS011;29217;52.586;13.442;2024-02-26T10:10:10;13.27;;;6.97;;
43626;SDS011;29217;52.586;13.442;2024-02-26T10:12:36;17.77;;;8.52;;
43626;SDS011;29217;52.586;13.442;2024-02-26T10:15:01;20.80;;;9.75;;
43626;SDS011;29217;52.586;13.442;2024-02-26T10:17:27;17.42;;;8.68;;
43626;SDS011;29217;52.586;13.442;2024-02-26T10:19:54;15.50;;;7.57;;
43626;SDS011;29217;52.586;13.442;2024-02-26T10:22:21;12.55;;;6.97;;
43626;SDS011;29217;52.586;13.442;2024-02-26T10:24:47;13.88;;;6.97;;
43626;SDS011;29217;52.586;13.442;2024-02-26T10:27:13;18.58;;;9.07;;
43626;SDS011;29217;52.586;13.442;2024-02-26T10:29:40;15.35;;;7.18;;
43626;SDS011;29217;52.586;13.442;2024-02-26T10:32:08;19.25;;;8.43;;
43626;SDS011;29217;52.586;13.442;2024-02-26T10:34:34;17.05;;;8.02;;
43626;SDS011;29217;52.586;13.442;2024-02-26T10:37:02;12.68;;;6.82;;
43626;SDS011;29217;52.586;13.442;2024-02-26T10:39:29;19.02;;;9.30;;
43626;SDS011;29217;52.586;13.442;2024-02-26T10:41:55;11.85;;;7.15;;
43626;SDS011;29217;52.586;13.442;2024-02-26T10:44:20;18.95;;;8.48;;
43626;SDS011;29217;52.586;13.442;2024-02-26T10:46:47;13.70;;;6.63;;
43626;SDS011;29217;52.586;13.442;2024-02-26T10:49:14;13.07;;;7.75;;
43626;SDS011;29217;52.586;13.442;2024-02-26T10:51:43;16.20;;;7.30;;
43626;SDS011;29217;52.586;13.442;2024-02-26T10:54:11;14.25;;;7.75;;
43626;SDS011;29217;52.586;13.442;2024-02-26T10:56:41;16.40;;;7.97;;
43626;SDS011;29217;52.586;13.442;2024-02-26T10:59:09;13.23;;;7.30;;
43626;SDS011;29217;52.586;13.442;2024-02-26T11:01:35;14.48;;;7.13;;
43626;SDS011;29217;52.586;13.442;2024-02-26T11:04:06;12.30;;;6.40;;
43626;SDS011;29217;52.586;13.442;2024-02-26T11:06:33;17.73;;;7.32;;
43626;SDS011;29217;52.586;13.442;2024-02-26T11:09:00;13.57;;;7.15;;
43626;SDS011;29217;52.586;13.442;2024-02-26T11:11:27;16.38;;;8.30;;
43626;SDS011;29217;52.586;13.442;2024-02-26T11:13:54;12.23;;;6.82;;
43626;SDS011;29217;52.586;13.442;2024-02-26T11:16:23;11.43;;;6.60;;
43626;SDS011;29217;52.586;13.442;2024-02-26T11:18:50;15.60;;;6.95;;
43626;SDS011;29217;52.586;13.442;2024-02-26T11:21:20;13.38;;;6.82;;
43626;SDS011;29217;52.586;13.442;2024-02-26T11:23:52;12.77;;;6.70;;
43626;SDS011;29217;52.586;13.442;2024-02-26T11:26:18;14.65;;;6.60;;
43626;SDS011;29217;52.586;13.442;2024-02-26T11:28:45;14.77;;;7.05;;
43626;SDS011;29217;52.586;13.442;2024-02-26T11:31:12;14.13;;;7.43;;
43626;SDS011;29217;52.586;13.442;2024-02-26T11:33:38;12.85;;;6.78;;
43626;SDS011;29217;52.586;13.442;2024-02-26T11:36:08;14.15;;;7.72;;
43626;SDS011;29217;52.586;13.442;2024-02-26T11:38:35;14.38;;;7.47;;
43626;SDS011;29217;52.586;13.442;2024-02-26T11:41:01;20.98;;;8.32;;
43626;SDS011;29217;52.586;13.442;2024-02-26T11:49:00;14.55;;;7.68;;
43626;SDS011;29217;52.586;13.442;2024-02-26T11:51:27;17.85;;;8.32;;
43626;SDS011;29217;52.586;13.442;2024-02-26T11:53:57;14.18;;;7.30;;
43626;SDS011;29217;52.586;13.442;2024-02-26T11:56:23;12.98;;;6.30;;
43626;SDS011;29217;52.586;13.442;2024-02-26T11:58:57;14.75;;;7.03;;
43626;SDS011;29217;52.586;13.442;2024-02-26T12:04:30;15.77;;;7.80;;
43626;SDS011;29217;52.586;13.442;2024-02-26T12:06:57;14.95;;;7.18;;
43626;SDS011;29217;52.586;13.442;2024-02-26T12:11:57;12.02;;;5.80;;
43626;SDS011;29217;52.586;13.442;2024-02-26T12:14:26;11.80;;;5.85;;
43626;SDS011;29217;52.586;13.442;2024-02-26T12:16:52;15.10;;;5.93;;
43626;SDS011;29217;52.586;13.442;2024-02-26T12:19:20;9.90;;;5.15;;
43626;SDS011;29217;52.586;13.442;2024-02-26T12:21:48;10.88;;;5.50;;
43626;SDS011;29217;52.586;13.442;2024-02-26T12:24:17;12.00;;;5.72;;
43626;SDS011;29217;52.586;13.442;2024-02-26T12:26:45;10.80;;;4.93;;
43626;SDS011;29217;52.586;13.442;2024-02-26T12:29:10;11.93;;;5.55;;
43626;SDS011;29217;52.586;13.442;2024-02-26T12:31:37;19.40;;;5.45;;
43626;SDS011;29217;52.586;13.442;2024-02-26T12:34:04;11.90;;;5.20;;
43626;SDS011;29217;52.586;13.442;2024-02-26T12:36:30;10.15;;;4.72;;
43626;SDS011;29217;52.586;13.442;2024-02-26T12:38:57;12.43;;;5.22;;
43626;SDS011;29217;52.586;13.442;2024-02-26T12:41:23;9.40;;;4.18;;
43626;SDS011;29217;52.586;13.442;2024-02-26T12:43:49;7.22;;;4.47;;
43626;SDS011;29217;52.586;13.442;2024-02-26T12:46:15;8.43;;;4.32;;
43626;SDS011;29217;52.586;13.442;2024-02-26T12:48:42;8.43;;;4.60;;
43626;SDS011;29217;52.586;13.442;2024-02-26T12:51:10;6.32;;;4.25;;
43626;SDS011;29217;52.586;13.442;2024-02-26T12:53:37;7.07;;;4.03;;
43626;SDS011;29217;52.586;13.442;2024-02-26T12:56:05;11.27;;;4.43;;
43626;SDS011;29217;52.586;13.442;2024-02-26T12:58:32;7.03;;;3.97;;
43626;SDS011;29217;52.586;13.442;2024-02-26T13:00:59;6.30;;;3.15;;
43626;SDS011;29217;52.586;13.442;2024-02-26T13:03:25;7.15;;;3.72;;
43626;SDS011;29217;52.586;13.442;2024-02-26T13:05:52;5.47;;;2.92;;
43626;SDS011;29217;52.586;13.442;2024-02-26T13:08:21;4.63;;;3.00;;
43626;SDS011;29217;52.586;13.442;2024-02-26T13:10:48;4.95;;;3.20;;
43626;SDS011;29217;52.586;13.442;2024-02-26T13:13:16;7.15;;;3.20;;
43626;SDS011;29217;52.586;13.442;2024-02-26T13:15:42;5.88;;;2.97;;
43626;SDS011;29217;52.586;13.442;2024-02-26T13:18:09;8.43;;;4.03;;
43626;SDS011;29217;52.586;13.442;2024-02-26T13:20:35;8.55;;;4.28;;
43626;SDS011;29217;52.586;13.442;2024-02-26T13:25:27;5.57;;;2.78;;
43626;SDS011;29217;52.586;13.442;2024-02-26T13:28:03;7.65;;;4.10;;
43626;SDS011;29217;52.586;13.442;2024-02-26T13:30:29;6.43;;;3.67;;
43626;SDS011;29217;52.586;13.442;2024-02-26T13:32:55;6.80;;;4.05;;
43626;SDS011;29217;52.586;13.442;2024-02-26T13:35:21;6.78;;;3.33;;
43626;SDS011;29217;52.586;13.442;2024-02-26T13:37:47;7.95;;;3.42;;
43626;SDS011;29217;52.586;13.442;2024-02-26T13:40:13;7.18;;;2.95;;
43626;SDS011;29217;52.586;13.442;2024-02-26T13:42:39;4.30;;;2.88;;
43626;SDS011;29217;52.586;13.442;2024-02-26T13:45:06;8.60;;;3.25;;
43626;SDS011;29217;52.586;13.442;2024-02-26T13:47:33;4.85;;;2.72;;
43626;SDS011;29217;52.586;13.442;2024-02-26T13:49:59;4.63;;;2.63;;
43626;SDS011;29217;52.586;13.442;2024-02-26T13:52:25;5.10;;;3.10;;
43626;SDS011;29217;52.586;13.442;2024-02-26T13:54:51;5.13;;;1.98;;
43626;SDS011;29217;52.586;13.442;2024-02-26T13:57:18;4.80;;;2.83;;
43626;SDS011;29217;52.586;13.442;2024-02-26T13:59:45;4.80;;;2.80;;
43626;SDS011;29217;52.586;13.442;2024-02-26T14:02:11;5.00;;;2.58;;
43626;SDS011;29217;52.586;13.442;2024-02-26T14:04:37;5.13;;;3.17;;
43626;SDS011;29217;52.586;13.442;2024-02-26T14:07:03;4.80;;;3.08;;
43626;SDS011;29217;52.586;13.442;2024-02-26T14:09:29;4.75;;;3.08;;
43626;SDS011;29217;52.586;13.442;2024-02-26T14:11:57;5.35;;;3.13;;
43626;SDS011;29217;52.586;13.442;2024-02-26T14:14:23;6.85;;;4.20;;
43626;SDS011;29217;52.586;13.442;2024-02-26T14:16:49;7.80;;;3.65;;
43626;SDS011;29217;52.586;13.442;2024-02-26T14:19:15;5.05;;;3.08;;
43626;SDS011;29217;52.586;13.442;2024-02-26T14:21:41;4.22;;;2.90;;
43626;SDS011;29217;52.586;13.442;2024-02-26T14:24:07;6.45;;;3.75;;
43626;SDS011;29217;52.586;13.442;2024-02-26T14:26:33;7.28;;;3.50;;
43626;SDS011;29217;52.586;13.442;2024-02-26T14:28:59;6.22;;;3.55;;